createdAt,value
2022-09-23T00:02:52.158Z,6.90
2022-09-23T00:07:57.246Z,5.30
2022-09-23T00:12:59.455Z,5.30
2022-09-23T00:18:01.130Z,4.90
2022-09-23T00:23:03.191Z,3.50
2022-09-23T00:28:04.998Z,3.80
2022-09-23T00:33:06.764Z,4.00
2022-09-23T00:38:08.404Z,4.40
2022-09-23T00:43:14.641Z,3.30
2022-09-23T00:48:20.759Z,3.40
2022-09-23T00:53:26.264Z,3.10
2022-09-23T00:58:34.290Z,4.70
2022-09-23T01:03:36.224Z,3.50
2022-09-23T01:08:39.330Z,5.70
2022-09-23T01:14:15.775Z,4.30
2022-09-23T01:19:35.930Z,4.70
2022-09-23T01:25:13.044Z,5.00
2022-09-23T01:30:33.272Z,3.20
2022-09-23T01:36:10.353Z,3.60
2022-09-23T01:41:43.552Z,5.40
2022-09-23T01:46:55.165Z,5.00
2022-09-23T01:52:07.480Z,3.60
2022-09-23T01:57:43.048Z,4.70
2022-09-23T02:02:54.237Z,4.10
2022-09-23T02:08:10.455Z,5.00
2022-09-23T02:13:40.235Z,4.70
2022-09-23T02:18:53.020Z,8.30
2022-09-23T02:24:05.870Z,6.50
2022-09-23T02:29:37.452Z,6.50
2022-09-23T02:35:17.542Z,4.40
2022-09-23T02:40:41.453Z,4.60
2022-09-23T02:45:43.651Z,5.10
2022-09-23T02:50:47.298Z,6.60
2022-09-23T02:55:49.693Z,8.10
2022-09-23T03:01:22.129Z,7.20
2022-09-23T03:06:43.893Z,5.40
2022-09-23T03:11:59.429Z,4.80
2022-09-23T03:17:15.529Z,5.20
2022-09-23T03:22:43.423Z,11.00
2022-09-23T03:27:45.498Z,10.40
2022-09-23T03:32:49.233Z,11.50
2022-09-23T03:38:08.940Z,7.40
2022-09-23T03:43:13.460Z,6.80
2022-09-23T03:48:15.144Z,5.80
2022-09-23T03:53:20.688Z,7.60
2022-09-23T03:58:22.369Z,6.10
2022-09-23T04:03:28.856Z,13.10
2022-09-23T04:08:30.643Z,9.80
2022-09-23T04:13:32.602Z,10.50
2022-09-23T04:18:35.003Z,6.80
2022-09-23T04:23:36.774Z,6.70
2022-09-23T04:28:38.959Z,6.00
2022-09-23T04:33:40.969Z,6.90
2022-09-23T04:38:48.252Z,12.80
2022-09-23T04:43:50.011Z,7.00
2022-09-23T04:48:51.790Z,6.90
2022-09-23T04:53:55.331Z,6.90
2022-09-23T04:58:57.741Z,8.20
2022-09-23T05:04:04.650Z,6.30
2022-09-23T05:09:08.469Z,7.90
2022-09-23T05:14:10.600Z,10.70
2022-09-23T05:19:13.086Z,10.00
2022-09-23T05:24:16.294Z,8.30
2022-09-23T05:29:18.082Z,8.10
2022-09-23T05:34:19.864Z,8.60
2022-09-23T05:39:21.655Z,10.30
2022-09-23T05:44:23.404Z,6.90
2022-09-23T05:49:42.653Z,13.60
2022-09-23T05:54:46.909Z,12.80
2022-09-23T05:59:48.689Z,10.10
2022-09-23T06:04:50.375Z,8.80
2022-09-23T06:09:53.566Z,7.40
2022-09-23T06:14:55.237Z,8.30
2022-09-23T06:19:57.225Z,8.10
2022-09-23T06:24:59.097Z,13.00
2022-09-23T06:30:00.894Z,9.90
2022-09-23T06:35:03.072Z,8.50
2022-09-23T06:40:06.168Z,7.60
2022-09-23T06:45:12.553Z,9.70
2022-09-23T06:50:14.422Z,6.90
2022-09-23T06:55:16.195Z,8.30
2022-09-23T07:00:18.998Z,8.20
2022-09-23T07:05:21.953Z,8.40
2022-09-23T07:10:23.779Z,7.20
2022-09-23T07:15:25.549Z,4.50
2022-09-23T07:20:27.354Z,9.60
2022-09-23T07:25:29.626Z,9.50
2022-09-23T07:30:31.818Z,6.30
2022-09-23T07:35:34.337Z,8.40
2022-09-23T07:40:38.683Z,6.10
2022-09-23T07:45:43.168Z,4.50
2022-09-23T07:50:44.939Z,3.40
2022-09-23T07:55:55.404Z,5.00
2022-09-23T08:01:09.724Z,3.90
2022-09-23T08:06:13.573Z,6.10
2022-09-23T08:11:15.407Z,5.00
2022-09-23T08:16:17.233Z,3.40
2022-09-23T08:21:22.931Z,3.50
2022-09-23T08:26:25.623Z,3.90
2022-09-23T08:31:27.337Z,4.20
2022-09-23T08:36:30.728Z,4.20
2022-09-23T08:41:58.215Z,3.80
2022-09-23T08:47:40.889Z,3.50
2022-09-23T08:53:05.055Z,4.30
2022-09-23T08:58:43.976Z,4.40
2022-09-23T09:03:56.185Z,3.80
2022-09-23T09:09:02.581Z,5.90
2022-09-23T09:14:29.780Z,3.90
2022-09-23T09:20:02.824Z,2.80
2022-09-23T09:25:40.363Z,3.40
2022-09-23T09:30:48.391Z,3.80
2022-09-23T09:36:44.745Z,3.90
2022-09-23T09:41:51.733Z,3.70
2022-09-23T09:47:46.148Z,3.10
2022-09-23T09:52:48.480Z,2.80
2022-09-23T09:58:01.117Z,2.50
2022-09-23T10:03:22.647Z,4.20
2022-09-23T10:08:36.550Z,3.10
2022-09-23T10:13:38.276Z,2.70
2022-09-23T10:18:45.677Z,2.80
2022-09-23T10:23:58.228Z,3.30
2022-09-23T10:29:22.528Z,2.90
2022-09-23T10:34:28.481Z,1.90
2022-09-23T10:39:48.543Z,2.30
2022-09-23T10:45:23.679Z,2.60
2022-09-23T10:50:48.782Z,1.40
2022-09-23T10:56:08.705Z,1.90
2022-09-23T11:01:41.761Z,1.30
2022-09-23T11:07:25.551Z,1.30
2022-09-23T11:12:53.487Z,1.10
2022-09-23T11:18:16.898Z,1.40
2022-09-23T11:23:50.505Z,1.20
2022-09-23T11:29:20.572Z,3.00
2022-09-23T11:35:03.388Z,1.60
2022-09-23T11:40:13.182Z,1.20
2022-09-23T11:45:26.499Z,1.20
2022-09-23T11:50:39.960Z,2.80
2022-09-23T11:55:58.319Z,1.10
2022-09-23T12:01:22.236Z,1.30
2022-09-23T12:06:46.622Z,1.60
2022-09-23T12:12:42.322Z,0.80
2022-09-23T12:18:10.614Z,1.20
2022-09-23T12:28:50.349Z,1.20
2022-09-23T12:33:53.909Z,2.10
2022-09-23T12:39:40.133Z,1.50
2022-09-23T12:44:46.522Z,1.90
2022-09-23T12:49:50.434Z,0.50
2022-09-23T12:54:58.056Z,0.80
2022-09-23T13:00:12.409Z,0.60
2022-09-23T13:05:44.713Z,0.80
2022-09-23T13:10:57.867Z,2.30
2022-09-23T13:16:20.754Z,1.50
2022-09-23T13:21:45.300Z,0.80
2022-09-23T13:26:53.475Z,1.20
2022-09-23T13:31:57.394Z,1.40
2022-09-23T13:37:22.225Z,2.90
2022-09-23T13:42:29.642Z,2.30
2022-09-23T13:47:35.519Z,2.40
2022-09-23T13:52:37.461Z,2.60
2022-09-23T13:57:39.258Z,1.70
2022-09-23T14:02:46.382Z,7.00
2022-09-23T14:07:53.355Z,3.50
2022-09-23T14:12:56.949Z,3.10
2022-09-23T14:18:07.839Z,1.70
2022-09-23T14:23:16.232Z,3.80
2022-09-23T14:28:22.497Z,2.00
2022-09-23T14:33:32.968Z,1.90
2022-09-23T14:38:50.941Z,2.50
2022-09-23T14:44:00.473Z,2.20
2022-09-23T14:49:10.453Z,2.40
2022-09-23T14:54:35.118Z,6.10
2022-09-23T14:59:37.343Z,2.00
2022-09-23T15:04:39.083Z,6.40
2022-09-23T15:09:43.617Z,3.00
2022-09-23T15:14:52.269Z,8.80
2022-09-23T15:20:00.221Z,3.30
2022-09-23T15:25:31.547Z,2.00
2022-09-23T15:30:36.069Z,2.40
2022-09-23T15:35:47.186Z,7.70
2022-09-23T15:40:49.567Z,8.00
2022-09-23T15:46:04.396Z,11.10
2022-09-23T15:51:09.296Z,9.10
2022-09-23T15:56:10.982Z,13.00
2022-09-23T16:01:36.076Z,7.70
2022-09-23T16:06:39.208Z,10.30
2022-09-23T16:11:49.826Z,6.00
2022-09-23T16:16:51.595Z,15.10
2022-09-23T16:21:53.536Z,22.70
2022-09-23T16:26:59.441Z,27.10
2022-09-23T16:32:02.719Z,7.60
2022-09-23T16:37:05.223Z,7.70
2022-09-23T16:42:07.019Z,7.80
2022-09-23T16:47:09.066Z,5.30
2022-09-23T16:52:11.561Z,6.60
2022-09-23T16:57:13.436Z,5.90
2022-09-23T17:02:34.269Z,6.20
2022-09-23T17:07:36.341Z,5.80
2022-09-23T17:12:38.254Z,5.60
2022-09-23T17:17:39.990Z,9.60
2022-09-23T17:22:42.605Z,14.00
2022-09-23T17:27:44.362Z,21.40
2022-09-23T17:32:46.852Z,27.50
2022-09-23T17:37:49.548Z,49.60
2022-09-23T17:42:55.126Z,26.50
2022-09-23T17:47:56.904Z,23.90
2022-09-23T17:53:00.097Z,18.40
2022-09-23T17:58:01.878Z,19.60
2022-09-23T18:03:03.653Z,20.90
2022-09-23T18:08:06.207Z,16.40
2022-09-23T18:13:08.325Z,22.20
2022-09-23T18:18:10.302Z,30.20
2022-09-23T18:23:12.387Z,25.40
2022-09-23T18:28:14.160Z,31.10
2022-09-23T18:33:15.937Z,44.30
2022-09-23T18:38:18.734Z,33.90
2022-09-23T18:43:25.602Z,30.20
2022-09-23T18:48:49.126Z,31.70
2022-09-23T18:53:57.135Z,35.80
2022-09-23T18:58:59.011Z,34.50
2022-09-23T19:04:02.639Z,33.30
2022-09-23T19:09:06.896Z,34.60
2022-09-23T19:14:11.549Z,30.50
2022-09-23T19:19:13.898Z,33.20
2022-09-23T19:24:19.477Z,41.10
2022-09-23T19:29:22.907Z,44.10
2022-09-23T19:34:28.665Z,71.70
2022-09-23T19:39:31.450Z,77.70
2022-09-23T19:44:37.308Z,82.10
2022-09-23T19:49:39.299Z,87.90
2022-09-23T19:54:41.204Z,74.30
2022-09-23T19:59:43.352Z,69.80
2022-09-23T20:04:45.244Z,62.30
2022-09-23T20:09:47.005Z,62.30
2022-09-23T20:14:51.027Z,73.60
2022-09-23T20:19:52.911Z,77.10
2022-09-23T20:24:55.721Z,74.60
2022-09-23T20:29:59.064Z,104.00
2022-09-23T20:35:00.920Z,73.70
2022-09-23T20:40:03.796Z,44.70
2022-09-23T20:45:07.218Z,37.80
2022-09-23T20:50:10.932Z,42.00
2022-09-23T20:55:13.012Z,48.80
2022-09-23T21:00:15.521Z,53.30
2022-09-23T21:05:17.686Z,51.80
2022-09-23T21:10:22.430Z,52.70
2022-09-23T21:15:24.310Z,51.50
2022-09-23T21:20:26.392Z,50.10
2022-09-23T21:25:29.239Z,54.50
2022-09-23T21:30:31.923Z,48.20
2022-09-23T21:35:33.658Z,87.30
2022-09-23T21:40:54.099Z,58.30
2022-09-23T21:46:01.910Z,48.40
2022-09-23T21:51:11.298Z,39.70
2022-09-23T21:56:19.625Z,46.40
2022-09-23T22:01:34.625Z,51.40
2022-09-23T22:06:39.814Z,53.40
2022-09-23T22:12:01.252Z,53.70
2022-09-23T22:17:06.809Z,73.20
2022-09-23T22:22:13.967Z,66.80
2022-09-23T22:27:19.060Z,65.40
2022-09-23T22:32:39.920Z,63.80
2022-09-23T22:37:41.966Z,58.70
2022-09-23T22:42:44.769Z,59.60
2022-09-23T22:47:46.960Z,53.10
2022-09-23T22:52:49.234Z,51.00
2022-09-23T22:57:51.217Z,47.90
2022-09-23T23:02:54.233Z,46.40
2022-09-23T23:07:57.117Z,47.10
2022-09-23T23:12:58.795Z,45.90
2022-09-23T23:18:00.596Z,46.60
2022-09-23T23:23:03.167Z,45.90
2022-09-23T23:28:05.447Z,43.70
2022-09-23T23:33:07.252Z,47.70
2022-09-23T23:38:10.534Z,43.60
2022-09-23T23:43:12.306Z,43.00
2022-09-23T23:48:14.081Z,41.80
2022-09-23T23:53:15.856Z,36.30
2022-09-23T23:58:18.585Z,40.20
